Time;durP1;ratioP1;P1;durP2;ratioP2;P2;SDS_P1;SDS_P2;PMS_P1;PMS_P2;Temp;Humidity;BMP_temperature;BMP_pressure;BME280_temperature;BME280_humidity;BME280_pressure;Samples;Min_cycle;Max_cycle;Signal;HPM_P1;HPM_P2
2022/09/24 00:00:05;;;;;;;12.87;5.10;;;12.50;99.90;;;;;;5045779;28;20577;-75
2022/09/24 00:02:51;;;;;;;5.60;4.97;;;12.70;99.90;;;;;;5039955;28;21025;-76
2022/09/24 00:05:38;;;;;;;5.20;4.63;;;12.70;99.90;;;;;;5045191;28;20547;-76
2022/09/24 00:08:24;;;;;;;7.60;5.07;;;12.70;99.90;;;;;;5058642;28;20649;-77
2022/09/24 00:11:13;;;;;;;9.23;4.67;;;12.90;99.90;;;;;;5058244;28;20477;-76
2022/09/24 00:13:59;;;;;;;5.70;4.77;;;12.80;99.90;;;;;;5058762;28;20510;-75
2022/09/24 00:16:45;;;;;;;6.20;4.57;;;12.70;99.90;;;;;;5058023;28;20474;-76
2022/09/24 00:19:31;;;;;;;10.80;5.57;;;12.60;99.90;;;;;;5055684;28;20448;-76
2022/09/24 00:22:16;;;;;;;5.43;4.80;;;12.60;99.90;;;;;;5049992;28;20806;-77
2022/09/24 00:28:07;;;;;;;6.43;4.33;;;12.30;99.90;;;;;;5052980;28;20453;-76
2022/09/24 00:30:53;;;;;;;6.43;5.23;;;12.30;99.90;;;;;;5059127;28;20426;-76
2022/09/24 00:33:38;;;;;;;5.37;4.73;;;12.30;99.90;;;;;;5049474;28;21013;-76
2022/09/24 00:36:24;;;;;;;7.70;5.40;;;12.30;99.90;;;;;;5053006;28;20463;-76
2022/09/24 00:39:10;;;;;;;7.00;4.97;;;12.30;99.90;;;;;;5051839;28;20846;-76
2022/09/24 00:41:55;;;;;;;7.53;5.30;;;12.40;99.90;;;;;;5051425;28;20577;-75
2022/09/24 00:44:56;;;;;;;9.63;4.40;;;12.30;99.90;;;;;;5047033;28;20413;-76
2022/09/24 00:47:43;;;;;;;8.47;5.53;;;12.40;99.90;;;;;;5050046;28;20653;-76
2022/09/24 00:50:32;;;;;;;10.23;6.10;;;12.60;99.90;;;;;;5057689;28;20548;-76
2022/09/24 00:53:22;;;;;;;7.63;4.80;;;12.50;99.90;;;;;;5054390;28;20961;-77
2022/09/24 00:56:14;;;;;;;9.87;5.90;;;12.50;99.90;;;;;;5055850;28;20818;-77
2022/09/24 00:59:02;;;;;;;7.50;4.53;;;12.50;99.90;;;;;;5046048;28;20438;-77
2022/09/24 01:01:50;;;;;;;5.00;4.33;;;12.40;99.90;;;;;;5061545;28;20540;-76
2022/09/24 01:04:36;;;;;;;6.07;5.40;;;12.50;99.90;;;;;;5048826;28;20798;-76
2022/09/24 01:07:21;;;;;;;9.50;5.20;;;12.40;99.90;;;;;;5049654;28;20805;-76
2022/09/24 01:10:07;;;;;;;6.10;4.80;;;12.40;99.90;;;;;;5047077;28;20468;-76
2022/09/24 01:12:58;;;;;;;4.97;4.47;;;12.30;99.90;;;;;;5052890;28;20472;-76
2022/09/24 01:15:51;;;;;;;6.83;4.90;;;12.40;99.90;;;;;;5055846;28;20418;-76
2022/09/24 01:18:42;;;;;;;6.33;5.33;;;12.60;99.90;;;;;;5049716;28;20938;-76
2022/09/24 01:21:36;;;;;;;7.27;4.93;;;12.50;99.90;;;;;;5047371;28;20864;-76
2022/09/24 01:24:47;;;;;;;5.73;4.60;;;12.50;99.90;;;;;;5049034;28;20499;-76
2022/09/24 01:27:51;;;;;;;5.57;5.07;;;12.50;99.90;;;;;;5052860;28;20504;-76
2022/09/24 01:30:40;;;;;;;5.90;4.70;;;12.40;99.90;;;;;;5047856;28;20468;-76
2022/09/24 01:33:28;;;;;;;10.83;4.63;;;12.30;99.90;;;;;;5046107;28;20447;-76
2022/09/24 01:36:15;;;;;;;5.90;4.60;;;12.10;99.90;;;;;;5052847;28;20472;-76
2022/09/24 01:39:03;;;;;;;8.60;5.00;;;11.90;99.90;;;;;;5049319;28;20446;-76
2022/09/24 01:41:50;;;;;;;7.30;5.10;;;11.80;99.90;;;;;;5053259;28;20601;-76
2022/09/24 01:44:37;;;;;;;6.30;5.33;;;11.70;99.90;;;;;;5043948;28;20553;-76
2022/09/24 01:47:30;;;;;;;7.00;5.23;;;11.60;99.90;;;;;;5059826;28;22001;-76
2022/09/24 01:50:19;;;;;;;6.73;4.50;;;11.50;99.90;;;;;;5054016;28;20576;-76
2022/09/24 01:53:10;;;;;;;8.17;6.63;;;11.40;99.90;;;;;;5048170;28;20981;-76
2022/09/24 01:56:02;;;;;;;9.83;6.27;;;11.40;99.90;;;;;;5051695;28;22423;-76
2022/09/24 01:58:54;;;;;;;7.20;5.30;;;11.40;99.90;;;;;;5051529;28;20444;-76
2022/09/24 02:01:45;;;;;;;8.27;5.40;;;11.40;99.90;;;;;;5053310;28;20553;-76
2022/09/24 02:04:36;;;;;;;6.20;5.20;;;11.30;99.90;;;;;;5050359;28;20977;-76
2022/09/24 02:07:27;;;;;;;6.80;6.10;;;11.30;99.90;;;;;;5045907;28;20560;-76
2022/09/24 02:10:15;;;;;;;5.83;4.90;;;11.30;99.90;;;;;;5052704;28;21203;-76
2022/09/24 02:13:05;;;;;;;9.67;5.03;;;11.30;99.90;;;;;;5044868;28;20588;-77
2022/09/24 02:15:53;;;;;;;6.40;4.70;;;11.30;99.90;;;;;;5055019;28;21056;-76
2022/09/24 02:18:42;;;;;;;7.30;4.50;;;11.20;99.90;;;;;;5051036;28;20397;-76
2022/09/24 02:21:31;;;;;;;6.40;5.10;;;11.20;99.90;;;;;;5049799;28;20460;-76
2022/09/24 02:24:20;;;;;;;9.93;5.00;;;11.20;99.90;;;;;;5046253;28;20463;-76
2022/09/24 02:27:06;;;;;;;5.30;4.57;;;11.20;99.90;;;;;;5045777;28;20952;-76
2022/09/24 02:29:51;;;;;;;5.90;4.60;;;11.20;99.90;;;;;;5051089;28;20610;-76
2022/09/24 02:32:40;;;;;;;5.63;4.63;;;11.20;99.90;;;;;;5051060;28;21881;-76
2022/09/24 02:35:26;;;;;;;5.97;4.80;;;11.20;99.90;;;;;;5053009;28;20789;-76
2022/09/24 02:38:18;;;;;;;5.33;4.27;;;11.10;99.90;;;;;;5043869;28;20442;-76
2022/09/24 02:41:06;;;;;;;5.77;4.77;;;11.00;99.90;;;;;;5041204;28;20553;-76
2022/09/24 02:43:52;;;;;;;7.00;5.20;;;11.00;99.90;;;;;;5055237;28;20486;-76
2022/09/24 02:46:40;;;;;;;6.80;4.83;;;10.90;99.90;;;;;;5067374;28;20439;-77
2022/09/24 02:49:26;;;;;;;5.40;4.80;;;10.90;99.90;;;;;;5057435;28;20578;-77
2022/09/24 02:52:12;;;;;;;9.13;5.43;;;10.80;99.90;;;;;;5055981;28;21093;-77
2022/09/24 02:54:59;;;;;;;5.03;4.53;;;10.80;99.90;;;;;;5051672;28;20536;-77
2022/09/24 02:57:45;;;;;;;8.63;4.60;;;10.70;99.90;;;;;;5052774;28;20551;-77
2022/09/24 03:00:30;;;;;;;5.60;4.17;;;10.60;99.90;;;;;;5055221;28;20519;-76
2022/09/24 03:03:16;;;;;;;5.97;4.73;;;10.50;99.90;;;;;;5048994;28;20449;-77
2022/09/24 03:06:02;;;;;;;4.23;3.83;;;10.60;99.90;;;;;;5056972;28;20422;-76
2022/09/24 03:08:47;;;;;;;5.13;4.63;;;10.60;99.90;;;;;;5055068;28;20861;-77
2022/09/24 03:11:35;;;;;;;9.30;5.30;;;10.50;99.90;;;;;;5053470;28;20624;-77
2022/09/24 03:14:20;;;;;;;4.73;4.23;;;10.40;99.90;;;;;;5053756;28;20439;-77
2022/09/24 03:17:06;;;;;;;6.27;4.10;;;10.30;99.90;;;;;;5060437;28;20464;-77
2022/09/24 03:19:51;;;;;;;10.33;4.20;;;10.40;99.90;;;;;;5057894;28;20426;-77
2022/09/24 03:22:37;;;;;;;7.83;3.70;;;10.40;99.90;;;;;;5051696;28;20550;-77
2022/09/24 03:25:24;;;;;;;4.90;3.87;;;10.50;99.90;;;;;;5054255;28;20439;-75
2022/09/24 03:28:11;;;;;;;5.37;4.10;;;10.50;99.90;;;;;;5057348;28;20417;-77
2022/09/24 03:31:02;;;;;;;5.77;4.30;;;10.50;99.90;;;;;;5059328;28;20956;-77
2022/09/24 03:33:49;;;;;;;6.87;3.93;;;10.50;99.90;;;;;;5055129;28;20456;-77
2022/09/24 03:36:34;;;;;;;8.07;4.27;;;10.50;99.90;;;;;;5050494;28;20509;-77
2022/09/24 03:39:20;;;;;;;5.40;4.83;;;10.40;99.90;;;;;;5046600;28;20897;-75
2022/09/24 03:42:06;;;;;;;5.87;3.77;;;10.40;99.90;;;;;;5054257;28;20520;-76
2022/09/24 03:44:53;;;;;;;7.43;4.30;;;10.40;99.90;;;;;;5062690;28;20471;-77
2022/09/24 03:47:39;;;;;;;4.23;3.83;;;10.40;99.90;;;;;;5057819;28;20450;-77
2022/09/24 03:50:25;;;;;;;6.77;4.40;;;10.50;99.90;;;;;;5052506;28;20671;-77
2022/09/24 03:53:10;;;;;;;4.57;3.50;;;10.50;99.90;;;;;;5057955;28;20590;-77
2022/09/24 03:55:58;;;;;;;4.00;3.57;;;10.50;99.90;;;;;;5050605;28;20498;-77
2022/09/24 03:58:46;;;;;;;5.63;4.00;;;10.40;99.90;;;;;;5054302;28;20519;-75
2022/09/24 04:01:36;;;;;;;5.50;3.50;;;10.30;99.90;;;;;;5057913;28;20519;-75
2022/09/24 04:04:21;;;;;;;5.57;4.00;;;10.30;99.90;;;;;;5061176;28;20493;-76
2022/09/24 04:07:07;;;;;;;7.40;4.03;;;10.40;99.90;;;;;;5059779;28;20468;-75
2022/09/24 04:09:52;;;;;;;8.63;4.60;;;10.30;99.90;;;;;;5056352;28;20517;-76
2022/09/24 04:12:38;;;;;;;8.30;4.40;;;10.40;99.90;;;;;;5056625;28;20522;-77
2022/09/24 04:15:24;;;;;;;6.83;3.87;;;10.50;99.90;;;;;;5067229;28;21000;-77
2022/09/24 04:18:12;;;;;;;5.70;4.10;;;10.50;99.90;;;;;;5064286;28;20914;-75
2022/09/24 04:20:59;;;;;;;5.30;4.37;;;10.40;99.90;;;;;;5055963;28;20442;-76
2022/09/24 04:23:44;;;;;;;5.73;4.10;;;10.40;99.90;;;;;;5061702;28;20495;-76
2022/09/24 04:26:30;;;;;;;5.23;3.97;;;10.20;99.90;;;;;;5057222;28;20967;-76
2022/09/24 04:29:16;;;;;;;4.80;4.10;;;10.10;99.90;;;;;;5059524;28;20426;-75
2022/09/24 04:32:02;;;;;;;9.57;4.43;;;10.00;99.90;;;;;;5060447;28;20430;-77
2022/09/24 04:34:49;;;;;;;4.93;4.33;;;9.90;99.90;;;;;;5052201;28;20506;-76
2022/09/24 04:37:35;;;;;;;7.20;5.87;;;9.80;99.90;;;;;;5051809;28;20453;-75
2022/09/24 04:40:22;;;;;;;5.67;4.50;;;9.80;99.90;;;;;;5049255;28;20494;-76
2022/09/24 04:43:07;;;;;;;6.63;4.93;;;9.90;99.90;;;;;;5058430;28;20525;-75
2022/09/24 04:45:58;;;;;;;5.07;4.57;;;10.00;99.90;;;;;;5064809;28;20790;-76
2022/09/24 04:48:43;;;;;;;5.23;4.70;;;10.00;99.90;;;;;;5057306;28;20414;-76
2022/09/24 04:51:32;;;;;;;4.73;4.00;;;10.10;99.90;;;;;;5058136;28;20807;-77
2022/09/24 04:54:18;;;;;;;8.10;4.50;;;10.20;99.90;;;;;;5056135;28;20422;-75
2022/09/24 04:57:04;;;;;;;6.40;5.03;;;10.10;99.90;;;;;;5051379;28;20494;-76
2022/09/24 04:59:50;;;;;;;6.70;4.93;;;10.10;99.90;;;;;;5054496;28;21154;-76
2022/09/24 05:02:35;;;;;;;6.37;5.10;;;10.10;99.90;;;;;;5054375;28;20466;-76
2022/09/24 05:05:21;;;;;;;11.80;5.80;;;10.00;99.90;;;;;;5055852;28;20444;-77
2022/09/24 05:08:08;;;;;;;7.70;5.23;;;10.00;99.90;;;;;;5056211;28;20418;-77
2022/09/24 05:10:53;;;;;;;5.30;4.80;;;9.90;99.90;;;;;;5051992;28;20477;-76
2022/09/24 05:13:39;;;;;;;8.33;5.23;;;9.80;99.90;;;;;;5057021;28;20489;-76
2022/09/24 05:16:25;;;;;;;8.50;5.90;;;9.70;99.90;;;;;;5055546;28;20423;-76
2022/09/24 05:19:10;;;;;;;8.27;5.47;;;9.70;99.90;;;;;;5059549;28;20580;-76
2022/09/24 05:21:56;;;;;;;6.87;5.10;;;9.80;99.90;;;;;;5051638;28;20454;-76
2022/09/24 05:24:42;;;;;;;5.97;5.17;;;10.00;99.90;;;;;;5054452;28;21035;-77
2022/09/24 05:27:27;;;;;;;8.80;5.50;;;10.00;99.90;;;;;;5057660;28;20422;-77
2022/09/24 05:30:13;;;;;;;6.90;5.30;;;10.10;99.90;;;;;;5057309;28;20451;-76
2022/09/24 05:32:58;;;;;;;9.13;6.07;;;10.20;99.90;;;;;;5058426;28;20442;-76
2022/09/24 05:35:44;;;;;;;11.00;5.10;;;10.20;99.90;;;;;;5056730;28;20594;-77
2022/09/24 05:38:31;;;;;;;9.37;5.60;;;10.10;99.90;;;;;;5061193;28;20414;-77
2022/09/24 05:41:18;;;;;;;9.53;5.23;;;10.10;99.90;;;;;;5054161;28;20430;-76
2022/09/24 05:44:04;;;;;;;6.53;5.23;;;10.20;99.90;;;;;;5053068;28;20533;-75
2022/09/24 05:46:50;;;;;;;8.53;5.30;;;10.40;99.90;;;;;;5060462;28;20463;-76
2022/09/24 05:49:36;;;;;;;7.67;5.80;;;10.50;99.90;;;;;;5053487;28;21318;-77
2022/09/24 05:52:22;;;;;;;9.40;6.20;;;10.60;99.90;;;;;;5056297;28;21075;-76
2022/09/24 05:55:09;;;;;;;8.00;5.93;;;10.60;99.90;;;;;;5055260;28;20538;-75
2022/09/24 05:57:56;;;;;;;9.03;6.47;;;10.60;99.90;;;;;;5054741;28;20409;-75
2022/09/24 06:00:43;;;;;;;8.87;6.00;;;10.80;99.90;;;;;;5048292;28;20439;-75
2022/09/24 06:03:30;;;;;;;7.87;5.27;;;10.90;99.90;;;;;;5060301;28;20603;-76
2022/09/24 06:06:16;;;;;;;9.07;5.70;;;10.90;99.90;;;;;;5060933;28;21104;-76
2022/09/24 06:09:01;;;;;;;7.30;5.87;;;10.80;99.90;;;;;;5049447;28;20457;-76
2022/09/24 06:11:49;;;;;;;8.93;6.47;;;10.80;99.90;;;;;;5056735;28;20495;-77
2022/09/24 06:14:37;;;;;;;8.13;5.70;;;10.80;99.90;;;;;;5047702;28;20454;-75
2022/09/24 06:17:23;;;;;;;7.50;5.50;;;10.90;99.90;;;;;;5057163;28;20447;-77
2022/09/24 06:20:09;;;;;;;8.50;6.37;;;10.90;99.90;;;;;;5047630;28;20426;-76
2022/09/24 06:22:56;;;;;;;9.30;6.60;;;11.10;99.90;;;;;;5053310;28;20475;-76
2022/09/24 06:25:41;;;;;;;11.07;6.20;;;11.10;99.90;;;;;;5057510;28;20640;-77
2022/09/24 06:28:27;;;;;;;14.10;6.70;;;11.20;99.90;;;;;;5055171;28;20451;-77
2022/09/24 06:31:14;;;;;;;6.67;6.07;;;11.30;99.90;;;;;;5052666;28;20920;-75
2022/09/24 06:34:01;;;;;;;7.50;6.37;;;11.40;99.90;;;;;;5055398;28;20435;-77
2022/09/24 06:36:46;;;;;;;6.93;6.10;;;11.50;99.90;;;;;;5063819;28;20808;-77
2022/09/24 06:39:32;;;;;;;10.03;7.77;;;11.60;99.90;;;;;;5057350;28;20507;-75
2022/09/24 06:42:19;;;;;;;11.70;8.10;;;11.70;99.90;;;;;;5053794;28;20523;-77
2022/09/24 06:45:06;;;;;;;11.17;7.73;;;11.70;99.90;;;;;;5066060;28;20425;-77
2022/09/24 06:47:58;;;;;;;10.40;9.27;;;11.70;99.90;;;;;;5061857;28;20432;-76
2022/09/24 06:50:46;;;;;;;11.80;9.47;;;11.70;99.90;;;;;;5054764;28;20446;-77
2022/09/24 06:53:31;;;;;;;15.63;12.77;;;11.70;99.90;;;;;;5067572;28;20925;-76
2022/09/24 06:56:17;;;;;;;14.20;12.80;;;11.80;99.90;;;;;;5053616;28;20434;-77
2022/09/24 06:59:02;;;;;;;22.90;13.40;;;11.90;99.90;;;;;;5063039;28;20405;-77
2022/09/24 07:01:48;;;;;;;12.27;11.07;;;11.90;99.90;;;;;;5047469;28;20470;-77
2022/09/24 07:04:35;;;;;;;16.80;10.30;;;12.10;99.90;;;;;;5054459;28;20956;-75
2022/09/24 07:07:31;;;;;;;9.73;8.73;;;12.20;99.90;;;;;;5052828;28;20451;-76
2022/09/24 07:10:17;;;;;;;11.00;9.43;;;12.50;99.90;;;;;;5055526;28;20529;-77
2022/09/24 07:13:03;;;;;;;9.70;8.70;;;12.50;99.90;;;;;;5056033;28;20446;-77
2022/09/24 07:15:51;;;;;;;10.70;8.00;;;12.50;99.90;;;;;;5059908;28;20932;-77
2022/09/24 07:18:37;;;;;;;13.50;7.20;;;12.50;99.90;;;;;;5046458;28;20539;-76
2022/09/24 07:21:24;;;;;;;9.17;6.93;;;12.60;99.90;;;;;;5056601;28;20516;-77
2022/09/24 07:24:10;;;;;;;7.77;6.97;;;12.60;99.90;;;;;;5051986;28;20964;-77
2022/09/24 07:26:56;;;;;;;10.83;8.40;;;12.70;99.90;;;;;;5053426;28;20418;-76
2022/09/24 07:29:42;;;;;;;9.13;8.03;;;12.70;99.90;;;;;;5057390;28;20493;-76
2022/09/24 07:32:27;;;;;;;11.60;9.47;;;12.80;99.90;;;;;;5060503;28;20542;-76
2022/09/24 07:35:13;;;;;;;10.27;8.20;;;12.80;99.90;;;;;;5044768;28;20451;-76
2022/09/24 07:38:03;;;;;;;16.03;8.20;;;12.90;99.90;;;;;;5058610;28;20469;-76
2022/09/24 07:40:48;;;;;;;9.00;7.50;;;13.00;99.90;;;;;;5056919;28;20405;-76
2022/09/24 07:43:34;;;;;;;11.53;8.30;;;13.10;99.90;;;;;;5054285;28;20562;-76
2022/09/24 07:46:20;;;;;;;13.20;8.07;;;13.20;99.90;;;;;;5055943;28;20511;-77
2022/09/24 07:49:06;;;;;;;10.20;8.73;;;13.30;99.90;;;;;;5056381;28;20896;-78
2022/09/24 07:51:52;;;;;;;15.37;8.47;;;13.40;99.90;;;;;;5052752;28;20478;-77
2022/09/24 07:54:39;;;;;;;11.93;8.03;;;13.50;99.90;;;;;;5058263;28;20438;-77
2022/09/24 07:57:26;;;;;;;15.00;9.00;;;13.50;99.90;;;;;;5057970;28;20436;-77
2022/09/24 08:00:13;;;;;;;10.20;8.20;;;13.60;99.90;;;;;;5051711;28;20448;-76
2022/09/24 08:02:59;;;;;;;12.80;8.73;;;13.70;99.90;;;;;;5057897;28;20459;-75
2022/09/24 08:05:45;;;;;;;14.13;9.20;;;13.70;99.90;;;;;;5059482;28;20421;-75
2022/09/24 08:08:30;;;;;;;9.17;7.10;;;13.90;99.90;;;;;;5051791;28;20419;-74
2022/09/24 08:11:17;;;;;;;13.40;8.00;;;13.90;99.90;;;;;;5047785;28;20501;-75
2022/09/24 08:14:03;;;;;;;8.17;7.00;;;14.10;99.90;;;;;;5058615;28;20489;-76
2022/09/24 08:16:49;;;;;;;10.30;7.20;;;14.20;99.90;;;;;;5064913;28;20442;-75
2022/09/24 08:19:35;;;;;;;7.80;6.17;;;14.30;99.90;;;;;;5053006;28;20781;-77
2022/09/24 08:22:20;;;;;;;13.70;6.40;;;14.30;99.90;;;;;;5057019;28;20505;-76
2022/09/24 08:25:07;;;;;;;7.60;6.40;;;14.40;99.90;;;;;;5056320;28;20406;-78
2022/09/24 08:27:53;;;;;;;8.00;6.13;;;14.50;99.90;;;;;;5063249;28;20436;-78
2022/09/24 08:30:40;;;;;;;9.93;8.50;;;14.50;99.90;;;;;;5058832;28;20440;-75
2022/09/24 08:33:26;;;;;;;12.50;6.70;;;14.60;99.90;;;;;;5064022;28;20422;-76
2022/09/24 08:36:11;;;;;;;17.00;7.10;;;14.60;99.90;;;;;;5065108;28;20398;-77
2022/09/24 08:38:57;;;;;;;18.90;8.40;;;14.70;99.90;;;;;;5063037;28;21130;-78
2022/09/24 08:41:55;;;;;;;9.97;7.80;;;14.80;99.90;;;;;;5059019;28;21051;-77
2022/09/24 08:47:57;;;;;;;18.13;8.50;;;15.00;99.90;;;;;;4989854;28;20457;-74
2022/09/24 08:50:48;;;;;;;9.93;7.30;;;15.20;99.90;;;;;;5029751;28;20485;-74
2022/09/24 08:53:45;;;;;;;8.70;7.80;;;15.20;99.90;;;;;;5037585;28;20443;-75
2022/09/24 08:56:36;;;;;;;8.97;6.70;;;15.40;99.90;;;;;;5022331;28;20619;-75
2022/09/24 08:59:29;;;;;;;9.37;8.00;;;15.50;99.90;;;;;;5016274;28;21077;-76
2022/09/24 09:02:28;;;;;;;10.90;7.60;;;15.70;99.90;;;;;;5020784;28;21363;-75
2022/09/24 09:05:23;;;;;;;10.50;8.03;;;15.80;99.90;;;;;;5018188;28;20564;-75
2022/09/24 09:08:15;;;;;;;8.53;7.70;;;15.90;99.90;;;;;;5014929;28;20435;-76
2022/09/24 09:11:05;;;;;;;10.33;8.17;;;16.10;99.90;;;;;;5015364;28;20472;-75
2022/09/24 09:13:56;;;;;;;11.87;7.60;;;16.30;99.90;;;;;;5017526;28;20441;-76
2022/09/24 09:16:47;;;;;;;14.83;8.60;;;16.30;99.90;;;;;;5020468;28;20740;-76
2022/09/24 09:19:35;;;;;;;10.43;6.73;;;16.40;99.90;;;;;;5018157;28;20528;-75
2022/09/24 09:22:24;;;;;;;11.70;8.73;;;16.40;99.90;;;;;;5019361;28;20444;-75
2022/09/24 09:25:19;;;;;;;10.40;7.10;;;16.40;99.90;;;;;;5011744;28;20439;-75
2022/09/24 09:28:13;;;;;;;9.70;7.63;;;16.40;99.90;;;;;;5015728;28;20596;-74
2022/09/24 09:31:07;;;;;;;14.47;7.00;;;16.40;99.90;;;;;;5015701;28;20836;-75
2022/09/24 09:34:13;;;;;;;8.60;6.30;;;16.40;99.90;;;;;;5016899;28;20446;-74
2022/09/24 09:37:13;;;;;;;12.37;7.00;;;16.30;99.90;;;;;;5018105;28;20555;-74
2022/09/24 09:40:19;;;;;;;14.80;7.10;;;16.40;99.90;;;;;;5007065;28;20445;-75
2022/09/24 09:43:10;;;;;;;8.73;6.90;;;16.50;99.90;;;;;;5028516;28;20448;-75
2022/09/24 09:46:06;;;;;;;12.20;7.77;;;16.60;99.90;;;;;;5021437;28;20998;-75
2022/09/24 09:48:56;;;;;;;10.67;6.40;;;16.80;99.90;;;;;;5014968;28;20444;-75
2022/09/24 09:51:46;;;;;;;7.77;5.97;;;16.90;99.90;;;;;;5016623;28;20538;-75
2022/09/24 09:54:42;;;;;;;10.43;7.30;;;17.10;99.90;;;;;;5015994;28;20821;-75
2022/09/24 09:57:27;;;;;;;10.27;6.20;;;17.20;99.90;;;;;;5020549;28;20563;-73
2022/09/24 10:00:26;;;;;;;12.63;6.60;;;17.30;99.90;;;;;;5015179;28;20465;-74
2022/09/24 10:03:23;;;;;;;12.07;9.30;;;17.30;99.90;;;;;;5013475;28;20514;-75
2022/09/24 10:06:09;;;;;;;9.20;8.20;;;17.20;99.90;;;;;;5012224;28;20453;-75
2022/09/24 10:09:07;;;;;;;12.27;9.23;;;17.20;99.90;;;;;;5010708;28;20576;-75
2022/09/24 10:11:55;;;;;;;11.60;7.57;;;17.30;99.90;;;;;;5017536;28;20562;-75
2022/09/24 10:14:41;;;;;;;11.50;9.80;;;17.30;99.90;;;;;;5013628;28;20525;-75
2022/09/24 10:17:30;;;;;;;16.30;10.40;;;17.30;99.90;;;;;;5007703;28;20423;-75
2022/09/24 10:20:19;;;;;;;21.33;12.27;;;17.20;99.90;;;;;;5009163;28;20486;-74
2022/09/24 10:23:07;;;;;;;12.70;10.57;;;17.10;99.90;;;;;;5021785;28;20420;-75
2022/09/24 10:26:00;;;;;;;14.03;10.93;;;16.90;99.90;;;;;;5021614;28;20856;-75
2022/09/24 10:32:02;;;;;;;16.50;11.30;;;16.90;99.90;;;;;;4988126;28;20483;-74
2022/09/24 10:34:56;;;;;;;19.80;11.40;;;17.10;99.90;;;;;;5012592;28;22093;-75
2022/09/24 10:37:50;;;;;;;27.50;12.07;;;17.30;99.90;;;;;;5004952;28;20480;-75
2022/09/24 10:40:39;;;;;;;13.23;10.80;;;17.30;99.90;;;;;;5010460;28;20443;-74
2022/09/24 10:43:25;;;;;;;13.30;9.70;;;17.40;99.90;;;;;;5019943;28;20438;-75
2022/09/24 10:46:33;;;;;;;17.23;9.47;;;17.50;99.90;;;;;;5020354;28;20981;-74
2022/09/24 10:49:31;;;;;;;9.93;8.83;;;17.50;99.90;;;;;;5005675;28;20838;-75
2022/09/24 10:52:28;;;;;;;13.30;10.37;;;17.50;99.90;;;;;;5010493;28;20446;-75
2022/09/24 10:55:41;;;;;;;15.57;8.50;;;17.60;99.90;;;;;;5017229;28;20485;-75
2022/09/24 10:58:52;;;;;;;13.60;8.73;;;17.70;99.90;;;;;;5011930;28;20445;-75
2022/09/24 11:01:47;;;;;;;12.67;8.70;;;17.70;99.90;;;;;;5019157;28;20515;-74
2022/09/24 11:04:45;;;;;;;15.23;9.30;;;17.70;99.90;;;;;;5008340;28;20500;-75
2022/09/24 11:07:59;;;;;;;11.50;9.07;;;17.80;99.90;;;;;;5008579;28;20969;-75
2022/09/24 11:11:08;;;;;;;10.43;7.97;;;17.90;99.90;;;;;;5017689;28;20428;-75
2022/09/24 11:14:05;;;;;;;14.03;8.90;;;17.90;99.90;;;;;;5019446;28;20443;-75
2022/09/24 11:17:24;;;;;;;14.93;8.07;;;17.80;99.90;;;;;;5010627;28;20864;-74
2022/09/24 11:20:23;;;;;;;7.90;7.00;;;17.80;99.90;;;;;;5010232;28;20954;-75
2022/09/24 11:23:29;;;;;;;9.87;7.57;;;17.80;99.90;;;;;;5025550;28;20420;-75
2022/09/24 11:26:27;;;;;;;7.77;6.27;;;17.90;99.90;;;;;;5023661;28;20481;-75
2022/09/24 11:29:28;;;;;;;8.30;7.40;;;18.00;99.90;;;;;;5012769;28;20511;-75
2022/09/24 11:32:22;;;;;;;17.53;7.10;;;18.00;99.90;;;;;;5021319;28;20619;-75
2022/09/24 11:35:33;;;;;;;10.13;6.40;;;17.90;99.90;;;;;;5018703;28;20978;-75
2022/09/24 11:38:30;;;;;;;10.53;6.00;;;18.00;99.90;;;;;;5008296;28;20640;-75
2022/09/24 11:41:26;;;;;;;11.20;5.63;;;18.10;99.90;;;;;;5017376;28;20453;-75
2022/09/24 11:44:46;;;;;;;6.80;6.10;;;18.30;99.90;;;;;;5016235;28;20469;-75
2022/09/24 11:47:49;;;;;;;8.43;6.00;;;18.50;99.90;;;;;;5008267;28;20449;-75
2022/09/24 11:50:45;;;;;;;7.47;6.30;;;18.70;99.90;;;;;;5020501;28;20491;-74
2022/09/24 11:53:38;;;;;;;8.67;6.40;;;18.60;99.90;;;;;;5015135;28;20419;-75
2022/09/24 11:56:28;;;;;;;16.53;6.60;;;18.30;99.90;;;;;;5010827;28;20456;-75
2022/09/24 11:59:19;;;;;;;9.90;5.93;;;18.30;99.90;;;;;;5018706;28;20456;-75
2022/09/24 12:02:16;;;;;;;8.83;6.47;;;18.30;99.90;;;;;;5017051;28;20443;-75
2022/09/24 12:05:08;;;;;;;9.17;5.87;;;18.20;99.90;;;;;;5021845;28;20464;-75
2022/09/24 12:07:57;;;;;;;7.43;5.30;;;18.20;99.90;;;;;;5013929;28;20925;-75
2022/09/24 12:10:48;;;;;;;9.27;6.50;;;18.10;99.90;;;;;;5014712;28;20471;-75
2022/09/24 12:13:38;;;;;;;11.80;5.80;;;18.10;99.90;;;;;;5024466;28;20471;-75
2022/09/24 12:16:27;;;;;;;7.20;5.50;;;18.00;99.90;;;;;;5017767;28;20547;-74
2022/09/24 12:19:20;;;;;;;13.70;6.53;;;18.00;99.90;;;;;;5014030;28;20526;-75
2022/09/24 12:22:10;;;;;;;8.40;7.20;;;17.90;99.90;;;;;;5015647;28;20439;-75
2022/09/24 12:25:00;;;;;;;14.60;5.90;;;17.90;99.90;;;;;;5018938;28;22451;-75
2022/09/24 12:27:46;;;;;;;13.00;6.40;;;17.90;99.90;;;;;;5010264;28;20991;-75
2022/09/24 12:33:49;;;;;;;10.63;5.57;;;18.00;99.90;;;;;;5017247;28;20845;-75
2022/09/24 12:36:53;;;;;;;8.93;5.27;;;18.00;99.90;;;;;;5010761;28;21040;-74
2022/09/24 12:39:51;;;;;;;9.33;5.17;;;18.20;99.90;;;;;;5015002;28;20438;-75
2022/09/24 12:42:42;;;;;;;10.23;5.83;;;18.30;99.90;;;;;;5020419;28;20577;-75
2022/09/24 12:45:28;;;;;;;6.77;5.10;;;18.20;99.90;;;;;;5015748;28;20477;-75
2022/09/24 12:48:16;;;;;;;9.73;5.93;;;18.20;99.90;;;;;;5005373;28;20670;-74
2022/09/24 12:51:04;;;;;;;7.80;4.87;;;18.20;99.90;;;;;;5018346;28;20427;-75
2022/09/24 12:53:59;;;;;;;7.50;5.30;;;18.30;99.90;;;;;;5019530;28;20433;-75
2022/09/24 12:56:46;;;;;;;8.07;5.73;;;18.60;99.90;;;;;;5016934;28;20821;-75
2022/09/24 12:59:31;;;;;;;11.20;6.60;;;18.90;99.90;;;;;;5019927;28;20444;-75
2022/09/24 13:02:19;;;;;;;8.60;5.70;;;19.10;99.90;;;;;;5024022;28;20440;-75
2022/09/24 13:05:18;;;;;;;6.67;5.53;;;19.00;99.90;;;;;;5019376;28;21012;-75
2022/09/24 13:08:23;;;;;;;6.40;5.00;;;18.90;99.90;;;;;;5022475;28;20518;-75
2022/09/24 13:11:28;;;;;;;8.43;5.20;;;18.80;99.40;;;;;;5022243;28;20441;-75
2022/09/24 13:14:21;;;;;;;6.00;5.00;;;18.70;99.60;;;;;;5020722;28;20468;-74
2022/09/24 13:17:07;;;;;;;10.43;5.43;;;18.70;99.90;;;;;;5008263;28;20449;-75
2022/09/24 13:19:58;;;;;;;7.27;4.63;;;18.70;99.90;;;;;;5015643;28;20934;-75
2022/09/24 13:22:56;;;;;;;7.87;5.10;;;18.70;99.90;;;;;;5021008;28;20469;-74
2022/09/24 13:25:42;;;;;;;9.40;5.00;;;18.70;99.90;;;;;;5009433;28;20541;-75
2022/09/24 13:28:29;;;;;;;9.37;5.10;;;18.70;99.90;;;;;;5016606;28;20452;-75
2022/09/24 13:31:25;;;;;;;9.17;5.93;;;18.70;99.90;;;;;;5013969;28;20518;-75
2022/09/24 13:34:18;;;;;;;6.90;5.13;;;18.60;99.90;;;;;;5020995;28;20961;-75
2022/09/24 13:37:14;;;;;;;8.13;5.40;;;18.50;99.90;;;;;;5004557;28;20531;-75
2022/09/24 13:40:06;;;;;;;5.23;4.20;;;18.30;99.90;;;;;;5015183;28;20457;-75
2022/09/24 13:42:58;;;;;;;5.57;4.10;;;18.30;99.90;;;;;;5020332;28;20440;-75
2022/09/24 13:45:45;;;;;;;9.73;5.70;;;18.30;99.90;;;;;;5009228;28;20847;-75
2022/09/24 13:48:36;;;;;;;5.90;4.40;;;18.30;99.90;;;;;;5011066;28;20909;-74
2022/09/24 13:51:27;;;;;;;7.27;5.20;;;18.30;99.90;;;;;;5008447;28;20458;-75
2022/09/24 13:54:21;;;;;;;11.33;6.43;;;18.40;99.90;;;;;;5016222;28;20437;-75
2022/09/24 13:57:19;;;;;;;7.93;6.10;;;18.30;99.90;;;;;;5010803;28;20545;-74
2022/09/24 14:00:15;;;;;;;6.87;5.13;;;18.40;99.90;;;;;;5016152;28;20436;-74
2022/09/24 14:03:04;;;;;;;8.80;5.80;;;18.40;99.90;;;;;;5022009;28;20576;-74
2022/09/24 14:05:52;;;;;;;9.30;6.20;;;18.40;99.90;;;;;;5009569;28;20470;-72
2022/09/24 14:08:41;;;;;;;8.13;5.23;;;18.40;99.90;;;;;;5020686;28;20456;-72
2022/09/24 14:11:26;;;;;;;9.93;5.40;;;18.40;99.90;;;;;;5021803;28;20444;-72
2022/09/24 14:14:18;;;;;;;11.03;5.30;;;18.30;99.90;;;;;;5017435;28;20531;-73
2022/09/24 14:17:07;;;;;;;6.80;5.10;;;18.30;99.90;;;;;;5010123;28;20456;-72
2022/09/24 14:19:56;;;;;;;6.30;5.30;;;18.40;99.90;;;;;;5028109;28;20475;-73
2022/09/24 14:22:45;;;;;;;19.40;6.70;;;18.60;99.90;;;;;;5025545;28;20430;-72
2022/09/24 14:25:35;;;;;;;11.07;5.43;;;18.70;99.90;;;;;;5008670;28;20483;-73
2022/09/24 14:28:22;;;;;;;9.63;5.13;;;18.90;99.90;;;;;;5015444;28;20434;-72
2022/09/24 14:31:08;;;;;;;9.13;4.63;;;19.20;99.90;;;;;;5014613;28;20953;-72
2022/09/24 14:33:54;;;;;;;9.57;5.23;;;19.30;99.90;;;;;;5020399;28;20592;-73
2022/09/24 14:36:40;;;;;;;6.17;5.47;;;19.30;99.90;;;;;;5007409;28;20449;-74
2022/09/24 14:39:29;;;;;;;10.97;5.83;;;19.10;99.90;;;;;;5004600;28;20472;-73
2022/09/24 14:42:22;;;;;;;6.70;4.67;;;19.00;99.90;;;;;;5010020;28;20556;-73
2022/09/24 14:45:10;;;;;;;9.90;5.33;;;18.90;99.90;;;;;;5035888;22;20872;-73
2022/09/24 14:48:03;;;;;;;10.50;5.20;;;18.90;99.90;;;;;;5051906;28;20444;-72
2022/09/24 14:50:48;;;;;;;9.17;5.70;;;18.80;99.90;;;;;;5053261;28;20492;-73